Time;durP1;ratioP1;P1;durP2;ratioP2;P2;SDS_P1;SDS_P2;PMS_P1;PMS_P2;Temp;Humidity;BMP_temperature;BMP_pressure;BME280_temperature;BME280_humidity;BME280_pressure;Samples;Min_cycle;Max_cycle;Signal;HPM_P1;HPM_P2
2022/06/24 00:01:20;;;;;;;;;;;;;;;28.06;26.73;99013.75;4398685;32;34255;-88
2022/06/24 00:03:47;;;;;;;;;;;;;;;28.20;26.26;99013.75;4403230;32;34892;-87
2022/06/24 00:06:15;;;;;;;;;;;;;;;27.99;26.83;99013.25;4404769;32;34387;-87
2022/06/24 00:08:49;;;;;;;;;;;;;;;28.11;26.48;99009.00;4408358;32;35145;-87
2022/06/24 00:11:21;;;;;;;;;;;;;;;27.72;26.84;99015.75;4408771;32;33155;-87
2022/06/24 00:13:48;;;;;;;;;;;;;;;27.87;26.85;99022.00;4421676;32;33845;-87
2022/06/24 00:16:15;;;;;;;;;;;;;;;27.94;26.68;99011.81;4415932;32;33055;-89
2022/06/24 00:18:43;;;;;;;;;;;;;;;27.96;26.41;99016.13;4407276;32;34111;-87
2022/06/24 00:21:11;;;;;;;;;;;;;;;28.09;26.00;99022.41;4421625;32;33422;-88
2022/06/24 00:23:39;;;;;;;;;;;;;;;27.92;26.56;99017.28;4404924;32;34254;-90
2022/06/24 00:26:07;;;;;;;;;;;;;;;27.72;26.90;99012.22;4415523;32;32689;-87
2022/06/24 00:28:34;;;;;;;;;;;;;;;27.23;27.56;99020.44;4393178;32;34599;-96
2022/06/24 00:31:02;;;;;;;;;;;;;;;27.44;26.84;99021.03;4399626;32;33182;-88
2022/06/24 00:33:34;;;;;;;;;;;;;;;27.46;26.60;99019.09;4395940;32;33126;-90
2022/06/24 00:36:01;;;;;;;;;;;;;;;27.15;26.25;99019.09;4413426;32;34138;-91
2022/06/24 00:38:34;;;;;;;;;;;;;;;27.09;27.31;99021.22;4405901;32;34074;-89
2022/06/24 00:41:01;;;;;;;;;;;;;;;27.26;27.23;99018.47;4407639;32;33193;-88
2022/06/24 00:43:31;;;;;;;;;;;;;;;27.16;27.17;99014.62;4405320;32;32409;-90
2022/06/24 00:46:08;;;;;;;;;;;;;;;27.59;26.52;99012.13;4406749;32;34482;-89
2022/06/24 00:48:38;;;;;;;;;;;;;;;27.31;27.06;99018.19;4412557;32;35036;-90
2022/06/24 00:51:07;;;;;;;;;;;;;;;27.75;26.50;99012.09;4395194;32;31808;-89
2022/06/24 00:53:42;;;;;;;;;;;;;;;27.80;26.26;99010.84;4403083;32;33800;-89
2022/06/24 00:56:11;;;;;;;;;;;;;;;27.96;25.93;99010.78;4387331;32;34286;-89
2022/06/24 00:58:39;;;;;;;;;;;;;;;27.96;25.81;99015.25;4406106;32;34330;-88
2022/06/24 01:01:06;;;;;;;;;;;;;;;27.86;26.10;99004.31;4404221;32;34127;-90
2022/06/24 01:03:38;;;;;;;;;;;;;;;27.69;26.37;98999.94;4392244;32;34359;-90
2022/06/24 01:06:11;;;;;;;;;;;;;;;27.57;26.37;99003.34;4391552;32;35613;-87
2022/06/24 01:08:43;;;;;;;;;;;;;;;27.44;26.67;99008.56;4405505;32;33916;-90
2022/06/24 01:11:11;;;;;;;;;;;;;;;27.59;26.53;99002.31;4405813;32;33462;-86
2022/06/24 01:13:38;;;;;;;;;;;;;;;27.51;26.63;99003.72;4406688;32;33668;-89
2022/06/24 01:16:06;;;;;;;;;;;;;;;26.95;27.10;99005.19;4405128;32;34416;-91
2022/06/24 01:18:33;;;;;;;;;;;;;;;27.36;26.66;99000.16;4402812;32;33756;-89
2022/06/24 01:21:00;;;;;;;;;;;;;;;27.63;26.31;99000.34;4397084;32;34827;-88
2022/06/24 01:23:28;;;;;;;;;;;;;;;27.40;26.52;99001.69;4396455;32;34274;-87
2022/06/24 01:25:55;;;;;;;;;;;;;;;27.50;26.50;99002.00;4399594;32;34380;-87
2022/06/24 01:28:22;;;;;;;;;;;;;;;27.60;26.25;98997.84;4404192;32;35116;-89
2022/06/24 01:30:49;;;;;;;;;;;;;;;27.65;26.34;98991.31;4392474;32;32518;-88
2022/06/24 01:33:21;;;;;;;;;;;;;;;27.72;26.39;98990.94;4404114;32;34955;-87
2022/06/24 01:35:48;;;;;;;;;;;;;;;27.58;26.54;98994.44;4404571;32;35228;-87
2022/06/24 01:38:15;;;;;;;;;;;;;;;27.72;26.48;98988.25;4379783;32;32767;-88
2022/06/24 01:40:42;;;;;;;;;;;;;;;27.77;26.38;98986.19;4406478;32;33391;-87
2022/06/24 01:43:10;;;;;;;;;;;;;;;27.83;26.19;98985.84;4405182;32;34292;-87
2022/06/24 01:45:40;;;;;;;;;;;;;;;27.69;26.37;98985.78;4406194;32;34263;-89
2022/06/24 01:48:07;;;;;;;;;;;;;;;27.81;26.38;98979.75;4406152;32;34804;-88
2022/06/24 01:50:35;;;;;;;;;;;;;;;27.85;26.35;98978.63;4403820;32;33415;-91
2022/06/24 01:53:02;;;;;;;;;;;;;;;27.85;26.31;98978.63;4415531;32;34980;-87
2022/06/24 01:55:29;;;;;;;;;;;;;;;27.56;26.74;98981.19;4413447;32;34521;-90
2022/06/24 01:57:57;;;;;;;;;;;;;;;27.53;26.88;98984.03;4406790;32;34566;-88
2022/06/24 02:00:25;;;;;;;;;;;;;;;27.69;26.57;98977.78;4414867;32;34258;-85
2022/06/24 02:02:52;;;;;;;;;;;;;;;26.90;27.67;98979.72;4405210;32;35116;-89
2022/06/24 02:05:20;;;;;;;;;;;;;;;27.40;26.80;98978.59;4407691;32;35324;-86
2022/06/24 02:07:47;;;;;;;;;;;;;;;26.35;27.50;98981.88;4421551;32;34250;-88
2022/06/24 02:15:47;;;;;;;;;;;;;;;25.23;29.23;98985.94;4409811;32;34401;-90
2022/06/24 02:18:14;;;;;;;;;;;;;;;25.35;29.21;98991.56;4404880;32;34806;-90
2022/06/24 02:20:42;;;;;;;;;;;;;;;24.80;30.13;98986.28;4403240;32;33352;-89
2022/06/24 02:23:11;;;;;;;;;;;;;;;25.17;29.55;98988.88;4395184;32;32611;-89
2022/06/24 02:25:38;;;;;;;;;;;;;;;24.63;30.28;98985.31;4406819;32;35271;-90
2022/06/24 02:28:06;;;;;;;;;;;;;;;25.67;28.60;98990.75;4420501;32;34219;-89
2022/06/24 02:30:33;;;;;;;;;;;;;;;25.11;29.39;98989.19;4406931;32;33322;-90
2022/06/24 02:33:00;;;;;;;;;;;;;;;25.61;29.15;98991.09;4415439;32;33582;-89
2022/06/24 02:35:28;;;;;;;;;;;;;;;24.69;30.17;98992.94;4406080;32;35186;-89
2022/06/24 02:37:55;;;;;;;;;;;;;;;24.90;29.84;98993.72;4421059;32;33359;-88
2022/06/24 02:43:19;;;;;;;;;;;;;;;24.04;31.18;98994.19;4403093;32;33338;-88
2022/06/24 02:45:47;;;;;;;;;;;;;;;24.69;30.52;98995.59;4406743;32;34557;-87
2022/06/24 02:48:15;;;;;;;;;;;;;;;25.15;29.44;98993.41;4420704;32;34413;-87
2022/06/24 02:50:43;;;;;;;;;;;;;;;25.34;29.42;98997.78;4407377;32;32519;-89
2022/06/24 02:53:12;;;;;;;;;;;;;;;24.50;30.46;98986.81;4404742;32;34145;-89
2022/06/24 02:55:40;;;;;;;;;;;;;;;23.71;32.14;98992.09;4389898;32;35122;-91
2022/06/24 02:58:07;;;;;;;;;;;;;;;23.72;32.26;99004.41;4379503;32;32737;-88
2022/06/24 03:00:34;;;;;;;;;;;;;;;24.49;31.02;98995.69;4393661;32;33815;-88
2022/06/24 03:03:02;;;;;;;;;;;;;;;24.49;31.18;98996.56;4390701;32;34121;-89
2022/06/24 03:05:29;;;;;;;;;;;;;;;24.78;30.79;98996.97;4377176;32;34136;-91
2022/06/24 03:07:57;;;;;;;;;;;;;;;25.08;30.31;98999.94;4405609;32;33845;-91
2022/06/24 03:10:25;;;;;;;;;;;;;;;24.53;31.15;99002.56;4388946;32;34326;-88
2022/06/24 03:12:54;;;;;;;;;;;;;;;24.02;31.98;99006.66;4391552;32;34779;-92
2022/06/24 03:15:21;;;;;;;;;;;;;;;24.92;30.44;99009.53;4402623;32;34052;-89
2022/06/24 03:17:49;;;;;;;;;;;;;;;24.37;31.61;99006.84;4391927;32;35081;-91
2022/06/24 03:20:16;;;;;;;;;;;;;;;22.97;33.68;99009.31;4376021;32;32923;-90
2022/06/24 03:22:43;;;;;;;;;;;;;;;24.15;32.05;99004.31;4389603;32;34380;-89
2022/06/24 03:25:11;;;;;;;;;;;;;;;23.51;32.87;99010.59;4391252;32;34428;-87
2022/06/24 03:27:38;;;;;;;;;;;;;;;23.19;33.95;99009.31;4398921;32;34080;-89
2022/06/24 03:30:06;;;;;;;;;;;;;;;23.25;33.42;99004.59;4401304;32;33180;-92
2022/06/24 03:32:34;;;;;;;;;;;;;;;23.21;33.89;99007.44;4390627;32;33748;-90
2022/06/24 03:35:01;;;;;;;;;;;;;;;23.29;33.52;99006.19;4388933;32;33910;-91
2022/06/24 03:37:29;;;;;;;;;;;;;;;22.84;34.54;99008.88;4391473;32;34956;-89
2022/06/24 03:39:58;;;;;;;;;;;;;;;23.02;34.31;99002.06;4392051;32;32819;-89
2022/06/24 03:42:26;;;;;;;;;;;;;;;23.04;34.14;99008.16;4391066;32;33634;-89
2022/06/24 03:44:53;;;;;;;;;;;;;;;23.62;33.46;99008.34;4404482;32;34296;-89
2022/06/24 03:47:21;;;;;;;;;;;;;;;23.67;33.30;99005.53;4404633;32;34984;-90
2022/06/24 03:49:50;;;;;;;;;;;;;;;22.95;34.70;99011.16;4391116;32;33426;-89
2022/06/24 03:52:18;;;;;;;;;;;;;;;23.04;34.46;99021.38;4393048;32;34159;-91
2022/06/24 03:54:47;;;;;;;;;;;;;;;23.79;33.36;99019.13;4378490;32;34658;-89
2022/06/24 03:57:15;;;;;;;;;;;;;;;24.14;32.58;99016.69;4405015;32;33632;-88
2022/06/24 03:59:42;;;;;;;;;;;;;;;24.67;32.10;99016.03;4400389;32;33262;-90
2022/06/24 04:02:09;;;;;;;;;;;;;;;24.79;31.96;99013.75;4390742;32;34193;-91
2022/06/24 04:04:37;;;;;;;;;;;;;;;25.63;30.72;99013.09;4391427;32;33667;-87
2022/06/24 04:07:04;;;;;;;;;;;;;;;26.02;29.79;99014.62;4390436;32;34274;-88
2022/06/24 04:09:31;;;;;;;;;;;;;;;25.81;29.99;99014.00;4403515;32;32816;-88
2022/06/24 04:11:59;;;;;;;;;;;;;;;25.66;30.00;99015.59;4388997;32;34953;-90
2022/06/24 04:17:12;;;;;;;;;;;;;;;26.68;29.22;99019.09;4403676;32;34317;-88
2022/06/24 04:19:39;;;;;;;;;;;;;;;27.50;27.58;99012.66;4387061;32;33382;-89
2022/06/24 04:22:07;;;;;;;;;;;;;;;27.15;28.29;99018.22;4390466;32;35059;-89
2022/06/24 04:24:34;;;;;;;;;;;;;;;27.38;27.72;99023.06;4378512;32;32526;-88
2022/06/24 04:27:01;;;;;;;;;;;;;;;27.40;28.33;99018.53;4395710;32;34030;-88
2022/06/24 04:29:28;;;;;;;;;;;;;;;26.47;29.29;99020.25;4390905;32;32873;-88
2022/06/24 04:31:56;;;;;;;;;;;;;;;26.07;29.94;99027.72;4398514;32;34792;-90
2022/06/24 04:34:24;;;;;;;;;;;;;;;27.62;27.91;99015.47;4407064;32;33852;-89
2022/06/24 04:36:51;;;;;;;;;;;;;;;26.64;29.03;99018.41;4392398;32;33752;-87
2022/06/24 04:39:19;;;;;;;;;;;;;;;26.64;29.19;99026.37;4392392;32;34422;-86
2022/06/24 04:41:46;;;;;;;;;;;;;;;26.20;29.92;99031.41;4406842;32;34568;-90
2022/06/24 04:44:13;;;;;;;;;;;;;;;27.57;28.04;99022.84;4406741;32;33771;-88
2022/06/24 04:46:40;;;;;;;;;;;;;;;28.27;27.33;99019.56;4392533;32;34267;-88
2022/06/24 04:49:08;;;;;;;;;;;;;;;27.57;28.13;99022.84;4390477;32;33564;-87
2022/06/24 04:51:35;;;;;;;;;;;;;;;28.20;27.30;99020.91;4391630;32;33435;-88
2022/06/24 04:54:02;;;;;;;;;;;;;;;27.65;28.06;99027.72;4391715;32;36900;-88
2022/06/24 04:56:30;;;;;;;;;;;;;;;27.88;27.12;99034.34;4391942;32;34316;-87
2022/06/24 04:59:00;;;;;;;;;;;;;;;28.93;26.45;99034.91;4390283;32;32430;-87
2022/06/24 05:01:29;;;;;;;;;;;;;;;27.99;27.14;99031.03;4402554;32;33926;-88
2022/06/24 05:03:58;;;;;;;;;;;;;;;27.17;27.72;99035.84;4406546;32;35466;-89
2022/06/24 05:06:26;;;;;;;;;;;;;;;28.81;26.14;99025.91;4389535;32;33482;-90
2022/06/24 05:08:53;;;;;;;;;;;;;;;28.86;27.17;99017.59;4390569;32;33322;-88
2022/06/24 05:11:21;;;;;;;;;;;;;;;28.36;27.00;99026.97;4391357;32;34227;-88
2022/06/24 05:13:48;;;;;;;;;;;;;;;28.46;26.91;99020.16;4392817;32;35207;-89
2022/06/24 05:16:15;;;;;;;;;;;;;;;29.36;25.65;99023.25;4406509;32;34137;-88
2022/06/24 05:19:02;;;;;;;;;;;;;;;28.29;27.02;99026.50;4399423;32;33208;-87
2022/06/24 05:21:30;;;;;;;;;;;;;;;29.19;25.82;99019.06;4395327;32;33800;-87
2022/06/24 05:23:57;;;;;;;;;;;;;;;27.28;27.76;99026.37;4391811;32;33716;-90
2022/06/24 05:26:24;;;;;;;;;;;;;;;27.03;28.31;99033.06;4403063;32;34997;-90
2022/06/24 05:28:52;;;;;;;;;;;;;;;27.43;28.26;99022.81;4406930;32;33512;-88
2022/06/24 05:31:19;;;;;;;;;;;;;;;26.92;28.19;99035.47;4396840;32;34038;-89
2022/06/24 05:33:46;;;;;;;;;;;;;;;27.51;27.35;99031.22;4403743;32;35198;-89
2022/06/24 05:36:15;;;;;;;;;;;;;;;28.11;27.13;99025.84;4405874;32;34136;-88
2022/06/24 05:38:44;;;;;;;;;;;;;;;28.40;26.88;99035.69;4393059;32;33201;-86
2022/06/24 05:41:12;;;;;;;;;;;;;;;27.52;27.02;99037.41;4374210;32;33393;-91
2022/06/24 05:43:39;;;;;;;;;;;;;;;27.79;27.10;99042.91;4386730;32;34576;-87
2022/06/24 05:46:07;;;;;;;;;;;;;;;28.16;26.06;99046.03;4400541;32;34378;-88
2022/06/24 05:48:34;;;;;;;;;;;;;;;28.71;26.04;99046.09;4390603;32;32118;-87
2022/06/24 05:51:11;;;;;;;;;;;;;;;28.21;26.91;99049.25;4391400;32;34322;-89
2022/06/24 05:56:25;;;;;;;;;;;;;;;28.16;27.31;99041.56;4421945;32;33912;-88
2022/06/24 05:58:52;;;;;;;;;;;;;;;28.57;26.20;99039.00;4408094;32;33420;-88
2022/06/24 06:01:20;;;;;;;;;;;;;;;27.59;27.62;99047.59;4407360;32;34344;-88
2022/06/24 06:03:47;;;;;;;;;;;;;;;28.62;26.65;99047.56;4395530;32;33874;-89
2022/06/24 06:06:15;;;;;;;;;;;;;;;29.01;25.93;99040.66;4408081;32;34988;-88
2022/06/24 06:08:42;;;;;;;;;;;;;;;29.63;25.09;99039.31;4408092;32;33344;-88
2022/06/24 06:11:10;;;;;;;;;;;;;;;29.10;25.44;99039.22;4411188;32;33725;-88
2022/06/24 06:13:38;;;;;;;;;;;;;;;30.16;23.88;99038.31;4421463;32;34229;-86
2022/06/24 06:16:06;;;;;;;;;;;;;;;28.55;26.73;99043.56;4420705;32;34205;-88
2022/06/24 06:18:33;;;;;;;;;;;;;;;28.86;26.68;99038.94;4421354;32;34316;-88
2022/06/24 06:21:01;;;;;;;;;;;;;;;28.71;26.99;99034.59;4421333;32;35199;-89
2022/06/24 06:23:28;;;;;;;;;;;;;;;29.11;25.62;99037.41;4401136;32;34497;-89
2022/06/24 06:25:56;;;;;;;;;;;;;;;29.79;25.10;99037.28;4416680;32;33997;-87
2022/06/24 06:28:24;;;;;;;;;;;;;;;29.27;25.98;99041.59;4394996;32;32720;-89
2022/06/24 06:30:51;;;;;;;;;;;;;;;29.12;26.42;99037.28;4401226;32;32686;-88
2022/06/24 06:33:18;;;;;;;;;;;;;;;30.06;24.88;99031.84;4412636;32;34892;-86
2022/06/24 06:35:46;;;;;;;;;;;;;;;30.13;24.67;99030.47;4407808;32;34384;-88
2022/06/24 06:38:13;;;;;;;;;;;;;;;28.55;27.16;99035.56;4407974;32;33382;-88
2022/06/24 06:40:41;;;;;;;;;;;;;;;29.80;25.44;99036.31;4407171;32;33782;-87
2022/06/24 06:43:09;;;;;;;;;;;;;;;28.97;25.33;99024.91;4405990;32;34804;-87
2022/06/24 06:45:36;;;;;;;;;;;;;;;29.30;25.74;99024.53;4388785;32;34138;-87
2022/06/24 06:48:04;;;;;;;;;;;;;;;29.94;25.50;99028.22;4387880;32;33126;-86
2022/06/24 06:50:31;;;;;;;;;;;;;;;29.33;25.52;99021.69;4401746;32;33629;-89
2022/06/24 06:52:59;;;;;;;;;;;;;;;29.70;24.87;99029.88;4404417;32;34109;-88
2022/06/24 06:55:26;;;;;;;;;;;;;;;29.94;25.63;99022.03;4406223;32;34299;-89
2022/06/24 06:57:53;;;;;;;;;;;;;;;30.05;25.10;99022.97;4405221;32;33462;-89
2022/06/24 07:00:21;;;;;;;;;;;;;;;29.79;25.61;99029.28;4405266;32;34783;-88
2022/06/24 07:02:48;;;;;;;;;;;;;;;30.20;25.14;99018.41;4405162;32;34095;-87
2022/06/24 07:05:16;;;;;;;;;;;;;;;30.49;23.67;99018.16;4389650;32;33587;-89
2022/06/24 07:07:43;;;;;;;;;;;;;;;30.22;24.36;99020.97;4390952;32;31828;-86
2022/06/24 07:10:10;;;;;;;;;;;;;;;30.53;24.44;99025.00;4401064;32;35161;-85
2022/06/24 07:12:38;;;;;;;;;;;;;;;30.73;24.81;99019.06;4405465;32;35153;-85
2022/06/24 07:15:06;;;;;;;;;;;;;;;30.15;23.84;99022.31;4391766;32;34264;-85
2022/06/24 07:17:33;;;;;;;;;;;;;;;30.80;23.44;99011.50;4399572;32;33157;-86
2022/06/24 07:20:01;;;;;;;;;;;;;;;31.79;21.83;99013.91;4403400;32;34964;-88
2022/06/24 07:22:28;;;;;;;;;;;;;;;31.54;21.55;99016.72;4389628;32;35104;-89
2022/06/24 07:24:56;;;;;;;;;;;;;;;30.72;22.21;99016.50;4404697;32;34703;-85
2022/06/24 07:27:23;;;;;;;;;;;;;;;31.62;22.26;99022.34;4403094;32;33345;-89
2022/06/24 07:29:50;;;;;;;;;;;;;;;31.34;21.65;99013.75;4403964;32;34691;-89
2022/06/24 07:32:18;;;;;;;;;;;;;;;32.04;21.68;99020.03;4391765;32;34487;-86
2022/06/24 07:34:45;;;;;;;;;;;;;;;33.03;20.95;99013.94;4391799;32;34635;-84
2022/06/24 07:37:12;;;;;;;;;;;;;;;32.56;21.17;99016.81;4403989;32;33142;-86
2022/06/24 07:39:42;;;;;;;;;;;;;;;32.63;21.11;99007.28;4405568;32;33825;-85
2022/06/24 07:42:09;;;;;;;;;;;;;;;31.47;21.90;99014.50;4405584;32;33975;-85
2022/06/24 07:44:40;;;;;;;;;;;;;;;31.86;22.44;99008.91;4405105;32;34654;-83
2022/06/24 07:47:08;;;;;;;;;;;;;;;30.62;23.12;99004.75;4405583;32;34251;-83
2022/06/24 07:49:35;;;;;;;;;;;;;;;31.42;22.24;99003.31;4405216;32;34160;-85
2022/06/24 07:52:03;;;;;;;;;;;;;;;30.84;23.39;99007.63;4407941;32;34247;-84
2022/06/24 07:54:31;;;;;;;;;;;;;;;31.51;22.52;99004.41;4406709;32;34411;-84
2022/06/24 07:56:58;;;;;;;;;;;;;;;32.61;21.83;99001.16;4406272;32;31959;-83
2022/06/24 07:59:27;;;;;;;;;;;;;;;30.47;21.98;99015.59;4421367;32;35595;-84
2022/06/24 08:01:55;;;;;;;;;;;;;;;30.52;22.19;99018.78;4419511;32;34231;-82
2022/06/24 08:04:22;;;;;;;;;;;;;;;31.35;22.72;99001.19;4416259;32;34843;-90
2022/06/24 08:06:50;;;;;;;;;;;;;;;30.19;23.50;99007.81;4408609;32;33284;-82
2022/06/24 08:09:18;;;;;;;;;;;;;;;30.76;21.97;98993.91;4394053;32;33817;-82
2022/06/24 08:11:45;;;;;;;;;;;;;;;31.39;21.95;99003.53;4393377;32;33567;-82
2022/06/24 08:14:15;;;;;;;;;;;;;;;30.75;22.57;99008.28;4393683;32;33876;-83
2022/06/24 08:16:43;;;;;;;;;;;;;;;30.53;23.13;99009.81;4413298;32;33627;-85
2022/06/24 08:19:14;;;;;;;;;;;;;;;31.73;22.36;98995.59;4408012;32;33621;-84
2022/06/24 08:21:42;;;;;;;;;;;;;;;31.94;22.58;98999.31;4408775;32;34416;-86
2022/06/24 08:24:09;;;;;;;;;;;;;;;31.92;21.39;98992.38;4421606;32;33790;-84
2022/06/24 08:26:37;;;;;;;;;;;;;;;32.97;21.47;98992.97;4405365;32;31561;-81
2022/06/24 08:29:06;;;;;;;;;;;;;;;33.31;21.51;98989.16;4405797;32;33807;-82
2022/06/24 08:31:35;;;;;;;;;;;;;;;32.45;21.01;98998.88;4393396;32;32686;-82
2022/06/24 08:34:03;;;;;;;;;;;;;;;32.53;20.61;98994.72;4407036;32;34939;-82
2022/06/24 08:36:33;;;;;;;;;;;;;;;32.73;19.99;98993.09;4406092;32;34135;-83
2022/06/24 08:39:03;;;;;;;;;;;;;;;31.92;21.16;99001.25;4407832;32;34195;-94
2022/06/24 08:41:33;;;;;;;;;;;;;;;31.23;22.16;98998.44;4421762;32;35115;-86
2022/06/24 08:44:00;;;;;;;;;;;;;;;31.60;21.39;98989.47;4406665;32;34363;-87
2022/06/24 08:46:27;;;;;;;;;;;;;;;32.09;22.05;98986.53;4409644;32;33543;-87
2022/06/24 08:48:58;;;;;;;;;;;;;;;32.09;21.76;98991.06;4406809;32;34261;-86
2022/06/24 08:51:27;;;;;;;;;;;;;;;32.75;21.37;98992.00;4393571;32;34497;-85
2022/06/24 08:53:57;;;;;;;;;;;;;;;33.13;20.44;98982.66;4390465;32;33842;-86
2022/06/24 08:56:45;;;;;;;;;;;;;;;33.13;20.64;98982.66;4391794;32;33584;-85
2022/06/24 08:59:12;;;;;;;;;;;;;;;32.14;21.04;98994.22;4391827;32;34207;-86
2022/06/24 09:01:40;;;;;;;;;;;;;;;32.78;20.18;98983.72;4392012;32;34946;-86
2022/06/24 09:04:08;;;;;;;;;;;;;;;32.94;20.26;98983.31;4391761;32;35110;-85
2022/06/24 09:06:36;;;;;;;;;;;;;;;31.84;21.33;98984.88;4392262;32;33399;-85
2022/06/24 09:09:04;;;;;;;;;;;;;;;31.36;21.63;98989.50;4391901;32;34282;-84
2022/06/24 09:11:38;;;;;;;;;;;;;;;32.36;21.29;98985.31;4397807;32;35438;-83
2022/06/24 09:14:05;;;;;;;;;;;;;;;32.29;21.49;98984.09;4392345;32;34863;-84
2022/06/24 09:16:35;;;;;;;;;;;;;;;33.32;20.82;98979.28;4378245;32;33535;-87
2022/06/24 09:19:06;;;;;;;;;;;;;;;33.33;21.35;98983.66;4384692;32;33737;-86
2022/06/24 09:21:39;;;;;;;;;;;;;;;33.94;19.89;98986.50;4391706;32;35885;-86
2022/06/24 09:24:07;;;;;;;;;;;;;;;33.48;19.41;98981.53;4391708;32;34945;-86
2022/06/24 09:26:34;;;;;;;;;;;;;;;33.34;18.95;98975.47;4391766;32;32432;-85
2022/06/24 09:29:06;;;;;;;;;;;;;;;33.65;18.92;98975.59;4391744;32;34258;-86
2022/06/24 09:31:34;;;;;;;;;;;;;;;32.87;18.47;98979.41;4390523;32;33411;-87
2022/06/24 09:34:05;;;;;;;;;;;;;;;32.42;19.71;98974.97;4391757;32;34795;-86
2022/06/24 09:36:33;;;;;;;;;;;;;;;32.95;19.61;98971.59;4390313;32;32384;-85
2022/06/24 09:39:05;;;;;;;;;;;;;;;33.25;19.31;98978.09;4390171;32;34188;-87
2022/06/24 09:41:42;;;;;;;;;;;;;;;33.69;19.68;98974.34;4390674;32;34362;-87
2022/06/24 09:44:10;;;;;;;;;;;;;;;32.98;19.70;98978.56;4391644;32;33835;-85
2022/06/24 09:46:37;;;;;;;;;;;;;;;33.12;20.10;98978.25;4392099;32;33327;-85
2022/06/24 09:49:05;;;;;;;;;;;;;;;33.48;19.51;98977.00;4391745;32;34130;-87
2022/06/24 09:51:33;;;;;;;;;;;;;;;33.69;18.99;98981.56;4390261;32;34589;-86
2022/06/24 09:54:00;;;;;;;;;;;;;;;34.34;18.16;98975.81;4402580;32;33865;-87
2022/06/24 09:56:28;;;;;;;;;;;;;;;33.91;18.61;98978.72;4390156;32;32782;-85
2022/06/24 10:01:42;;;;;;;;;;;;;;;33.78;18.36;98973.53;4391337;32;34477;-86
2022/06/24 10:04:14;;;;;;;;;;;;;;;34.11;19.14;98963.56;4391416;32;33895;-86
2022/06/24 10:06:42;;;;;;;;;;;;;;;34.44;18.50;98964.22;4391808;32;34456;-85
2022/06/24 10:09:10;;;;;;;;;;;;;;;33.11;19.31;98963.09;4391452;32;33897;-87
2022/06/24 10:11:38;;;;;;;;;;;;;;;34.05;20.62;98959.56;4391281;32;33998;-84
2022/06/24 10:14:06;;;;;;;;;;;;;;;32.97;20.08;98958.06;4391340;32;34998;-86
2022/06/24 10:16:33;;;;;;;;;;;;;;;33.36;20.33;98962.75;4391794;32;34004;-85
2022/06/24 10:19:02;;;;;;;;;;;;;;;32.56;19.30;98956.91;4390154;32;35084;-84
2022/06/24 10:21:29;;;;;;;;;;;;;;;34.16;21.13;98955.91;4389803;32;34066;-85
2022/06/24 10:23:57;;;;;;;;;;;;;;;33.58;19.62;98944.84;4377965;32;32672;-85
2022/06/24 10:26:31;;;;;;;;;;;;;;;33.32;19.70;98945.19;4390888;32;33227;-85
2022/06/24 10:29:04;;;;;;;;;;;;;;;32.58;20.36;98939.72;4391601;32;35175;-85
2022/06/24 10:31:56;;;;;;;;;;;;;;;33.90;19.75;98944.72;4391295;32;34313;-84
2022/06/24 10:34:30;;;;;;;;;;;;;;;33.78;19.61;98935.03;4390230;32;34483;-85
2022/06/24 10:36:58;;;;;;;;;;;;;;;33.75;20.65;98944.22;4391195;32;32830;-84
2022/06/24 10:39:30;;;;;;;;;;;;;;;33.87;19.04;98928.88;4391383;32;35302;-84
2022/06/24 10:41:58;;;;;;;;;;;;;;;34.38;20.77;98917.19;4389843;32;34012;-85
2022/06/24 10:44:26;;;;;;;;;;;;;;;35.37;17.42;98917.16;4390063;32;34519;-84
2022/06/24 10:47:10;;;;;;;;;;;;;;;34.26;19.08;98919.16;4391148;32;33602;-84
2022/06/24 10:49:52;;;;;;;;;;;;;;;34.26;18.94;98919.16;4391427;32;33449;-84
2022/06/24 10:52:43;;;;;;;;;;;;;;;34.96;18.37;98916.44;4399716;32;34218;-84
2022/06/24 10:55:28;;;;;;;;;;;;;;;34.73;17.88;98903.25;4412533;32;34769;-84
2022/06/24 10:57:56;;;;;;;;;;;;;;;34.14;18.33;98904.09;4382889;32;32676;-85
2022/06/24 11:00:25;;;;;;;;;;;;;;;33.67;18.81;98903.72;4421278;32;33123;-86
2022/06/24 11:02:52;;;;;;;;;;;;;;;34.25;19.01;98901.31;4395392;32;33958;-86
2022/06/24 11:05:22;;;;;;;;;;;;;;;33.80;19.53;98907.03;4421342;32;34123;-85
2022/06/24 11:07:49;;;;;;;;;;;;;;;34.72;18.14;98896.19;4407785;32;32944;-85
2022/06/24 11:10:20;;;;;;;;;;;;;;;34.98;18.15;98893.78;4421357;32;34216;-84
2022/06/24 11:12:54;;;;;;;;;;;;;;;34.62;18.98;98898.84;4394733;32;33870;-84
2022/06/24 11:15:38;;;;;;;;;;;;;;;35.10;17.63;98892.66;4395399;32;33829;-83
2022/06/24 11:18:08;;;;;;;;;;;;;;;34.09;17.95;98876.75;4407170;32;34166;-86
2022/06/24 11:20:37;;;;;;;;;;;;;;;34.65;17.96;98875.34;4421231;32;34166;-86
2022/06/24 11:23:08;;;;;;;;;;;;;;;34.20;18.76;98882.00;4407143;32;35033;-85
2022/06/24 11:25:35;;;;;;;;;;;;;;;34.85;18.38;98877.91;4377621;32;1005839;-87
2022/06/24 11:28:03;;;;;;;;;;;;;;;34.85;16.99;98871.66;4421248;32;32877;-85
2022/06/24 11:30:30;;;;;;;;;;;;;;;33.71;17.95;98872.03;4407382;32;34626;-84
2022/06/24 11:32:59;;;;;;;;;;;;;;;32.89;18.98;98873.59;4421087;32;34516;-85
2022/06/24 11:35:27;;;;;;;;;;;;;;;33.00;19.24;98875.41;4408709;32;33260;-84
2022/06/24 11:37:56;;;;;;;;;;;;;;;33.69;19.18;98882.94;4422967;32;33907;-85
2022/06/24 11:40:24;;;;;;;;;;;;;;;32.82;19.62;98877.75;4423031;32;35039;-83
2022/06/24 11:42:52;;;;;;;;;;;;;;;32.94;18.79;98866.00;4422635;32;34434;-85
2022/06/24 11:45:33;;;;;;;;;;;;;;;33.79;18.00;98870.41;4422473;32;35039;-85
2022/06/24 11:48:01;;;;;;;;;;;;;;;33.94;18.54;98864.63;4408948;32;33927;-83
2022/06/24 11:50:28;;;;;;;;;;;;;;;33.04;19.21;98859.88;4408680;32;34631;-83
2022/06/24 11:52:56;;;;;;;;;;;;;;;33.94;19.16;98870.84;4408440;32;34304;-86
2022/06/24 11:55:27;;;;;;;;;;;;;;;34.34;17.47;98856.56;4408976;32;33460;-84
2022/06/24 11:57:55;;;;;;;;;;;;;;;34.67;17.80;98857.22;4408919;32;33379;-86
2022/06/24 12:00:24;;;;;;;;;;;;;;;33.07;18.68;98854.22;4422777;32;34023;-86
2022/06/24 12:02:52;;;;;;;;;;;;;;;32.99;19.42;98852.19;4396390;32;34474;-83
2022/06/24 12:05:19;;;;;;;;;;;;;;;33.61;18.50;98843.28;4408670;32;34046;-85
2022/06/24 12:07:47;;;;;;;;;;;;;;;34.71;18.91;98835.25;4408732;32;34238;-85
2022/06/24 12:10:14;;;;;;;;;;;;;;;34.99;17.88;98833.53;4408655;32;34908;-84
2022/06/24 12:12:57;;;;;;;;;;;;;;;35.08;17.78;98830.00;4395992;32;34139;-84
2022/06/24 12:15:47;;;;;;;;;;;;;;;34.50;17.03;98829.97;4422599;32;34036;-84
2022/06/24 12:18:15;;;;;;;;;;;;;;;33.88;17.77;98831.06;4422618;32;34160;-85
2022/06/24 12:20:42;;;;;;;;;;;;;;;34.02;17.67;98832.53;4408505;32;32612;-85
2022/06/24 12:23:16;;;;;;;;;;;;;;;35.01;16.28;98823.47;4422193;32;34256;-86
2022/06/24 12:25:45;;;;;;;;;;;;;;;34.62;17.14;98822.59;4408439;32;33390;-85
2022/06/24 12:28:19;;;;;;;;;;;;;;;35.03;18.08;98826.87;4408615;32;34318;-85
2022/06/24 12:31:06;;;;;;;;;;;;;;;34.30;17.86;98822.84;4408892;32;34100;-84
2022/06/24 12:33:39;;;;;;;;;;;;;;;35.12;17.96;98838.66;4408454;32;33923;-85
2022/06/24 12:36:13;;;;;;;;;;;;;;;34.97;17.68;98823.91;4408373;32;33950;-85
2022/06/24 12:38:40;;;;;;;;;;;;;;;35.04;17.30;98816.94;4408837;32;34072;-85
2022/06/24 12:41:09;;;;;;;;;;;;;;;34.91;16.28;98816.38;4422402;32;34783;-84
2022/06/24 12:43:36;;;;;;;;;;;;;;;34.34;17.75;98819.75;4422520;32;34537;-85
2022/06/24 12:46:04;;;;;;;;;;;;;;;35.10;16.41;98810.97;4395865;32;33678;-84
2022/06/24 12:51:24;;;;;;;;;;;;;;;34.79;17.15;98804.91;4410588;32;34183;-85
2022/06/24 12:53:55;;;;;;;;;;;;;;;34.06;18.10;98793.66;4408531;32;34753;-85
2022/06/24 12:56:23;;;;;;;;;;;;;;;33.74;18.33;98794.66;4409028;32;34138;-86
2022/06/24 12:58:51;;;;;;;;;;;;;;;34.61;18.02;98792.16;4422321;32;33525;-85
2022/06/24 13:01:21;;;;;;;;;;;;;;;34.33;17.58;98790.28;4408732;32;34896;-83
2022/06/24 13:03:48;;;;;;;;;;;;;;;34.63;17.69;98786.63;4422438;32;34296;-84
2022/06/24 13:06:16;;;;;;;;;;;;;;;35.41;16.98;98765.78;4421848;32;34563;-86
2022/06/24 13:08:43;;;;;;;;;;;;;;;35.79;16.95;98764.75;4408401;32;33144;-92
2022/06/24 13:11:10;;;;;;;;;;;;;;;33.92;17.19;98764.41;4395338;32;34178;-84
2022/06/24 13:13:38;;;;;;;;;;;;;;;34.58;17.59;98761.97;4407720;32;34547;-84
2022/06/24 13:16:05;;;;;;;;;;;;;;;35.15;18.20;98748.56;4407271;32;33514;-91